Time;durP1;ratioP1;P1;durP2;ratioP2;P2;SDS_P1;SDS_P2;PMS_P1;PMS_P2;Temp;Humidity;BMP_temperature;BMP_pressure;BME280_temperature;BME280_humidity;BME280_pressure;Samples;Min_cycle;Max_cycle;Signal;HPM_P1;HPM_P2
2022/12/31 00:01:16;;;;;;;1.00;0.70;;;;;;;14.44;100.00;100093.31;5043998;28;20111;-73
2022/12/31 00:03:43;;;;;;;3.42;0.70;;;;;;;14.45;100.00;100089.34;5041935;28;20044;-72
2022/12/31 00:06:12;;;;;;;0.35;0.30;;;;;;;14.47;100.00;100095.22;5043308;28;20533;-72
2022/12/31 00:08:39;;;;;;;1.25;0.63;;;;;;;14.55;100.00;100079.91;5040547;28;20052;-73
2022/12/31 00:11:06;;;;;;;3.45;1.60;;;;;;;14.56;100.00;100087.84;5045306;28;20056;-73
2022/12/31 00:13:32;;;;;;;0.90;0.80;;;;;;;14.62;100.00;100074.91;5040291;28;20053;-74
2022/12/31 00:16:11;;;;;;;0.73;0.47;;;;;;;14.62;100.00;100077.69;5043456;28;20048;-75
2022/12/31 00:18:38;;;;;;;2.05;1.00;;;;;;;14.69;100.00;100079.53;5042676;28;20083;-72
2022/12/31 00:21:07;;;;;;;0.88;0.65;;;;;;;14.67;100.00;100084.75;5037550;28;20060;-72
2022/12/31 00:23:34;;;;;;;1.88;1.00;;;;;;;14.69;100.00;100079.53;5041395;28;20049;-73
2022/12/31 00:26:07;;;;;;;1.60;0.80;;;;;;;14.67;100.00;100077.19;5038657;28;20062;-73
2022/12/31 00:28:35;;;;;;;0.65;0.65;;;;;;;14.63;100.00;100084.84;5037018;28;20783;-73
2022/12/31 00:31:10;;;;;;;2.28;0.70;;;;;;;14.53;100.00;100099.84;5045444;28;20056;-71
2022/12/31 00:33:37;;;;;;;;;;;;;;;14.50;100.00;100088.78;5042218;28;20052;-71
2022/12/31 00:36:15;;;;;;;2.05;0.73;;;;;;;14.45;100.00;100094.91;5044467;28;19924;-74
2022/12/31 00:38:44;;;;;;;1.17;0.70;;;;;;;14.28;100.00;100080.22;5040246;28;20044;-73
2022/12/31 00:41:12;;;;;;;1.85;0.98;;;;;;;14.26;100.00;100071.53;5038260;28;20502;-72
2022/12/31 00:43:39;;;;;;;1.05;0.40;;;;;;;14.23;100.00;100085.53;5041017;28;20048;-72
2022/12/31 00:46:06;;;;;;;0.70;0.70;;;;;;;14.25;100.00;100083.09;5036894;28;20072;-72
2022/12/31 00:48:34;;;;;;;0.40;0.40;;;;;;;14.23;100.00;100075.19;5044999;28;20080;-73
2022/12/31 00:51:02;;;;;;;1.88;0.90;;;;;;;14.13;100.00;100067.09;5038823;28;20059;-71
2022/12/31 00:53:29;;;;;;;0.82;0.65;;;;;;;14.20;100.00;100064.91;5054121;28;20048;-72
2022/12/31 00:56:04;;;;;;;1.92;1.05;;;;;;;14.19;100.00;100068.91;5064457;28;20049;-74
2022/12/31 00:58:32;;;;;;;0.65;0.43;;;;;;;14.14;100.00;100065.88;5059319;28;20134;-71
2022/12/31 01:01:10;;;;;;;1.23;0.65;;;;;;;14.14;100.00;100066.66;5065981;28;20052;-72
2022/12/31 01:03:37;;;;;;;0.98;0.60;;;;;;;14.09;100.00;100058.06;5066427;28;20052;-71
2022/12/31 01:06:05;;;;;;;0.85;0.60;;;;;;;14.07;100.00;100050.16;5067251;28;20490;-72
2022/12/31 01:08:32;;;;;;;0.65;0.65;;;;;;;13.99;100.00;100043.22;5048707;28;20143;-72
2022/12/31 01:11:18;;;;;;;1.38;0.47;;;;;;;14.00;100.00;100038.44;5066946;28;20062;-71
2022/12/31 01:13:55;;;;;;;1.75;0.75;;;;;;;14.03;100.00;100035.56;5070732;28;20051;-72
2022/12/31 01:16:32;;;;;;;4.97;1.10;;;;;;;14.02;100.00;100030.41;5079134;28;20076;-72
2022/12/31 01:19:00;;;;;;;2.03;0.70;;;;;;;13.95;100.00;100031.41;5070670;28;20148;-71
2022/12/31 01:21:28;;;;;;;1.15;0.95;;;;;;;13.97;100.00;100017.06;5070828;28;20052;-73
2022/12/31 01:23:54;;;;;;;3.35;1.20;;;;;;;13.97;100.00;100017.06;5069150;28;20048;-72
2022/12/31 01:26:21;;;;;;;3.22;1.17;;;;;;;13.99;100.00;100017.38;5071241;28;20053;-72
2022/12/31 01:28:47;;;;;;;2.33;1.20;;;;;;;13.94;100.00;100023.50;5067156;28;20044;-71
2022/12/31 01:31:16;;;;;;;0.52;0.50;;;;;;;13.92;100.00;100015.59;5068583;28;20048;-71
2022/12/31 01:33:43;;;;;;;5.38;1.60;;;;;;;13.99;100.00;100017.38;5070469;28;20071;-72
2022/12/31 01:36:16;;;;;;;3.25;1.60;;;;;;;13.99;100.00;100012.63;5071459;28;20072;-71
2022/12/31 01:38:50;;;;;;;2.92;1.30;;;;;;;13.97;100.00;100011.50;5070383;28;20049;-70
2022/12/31 01:41:30;;;;;;;3.03;1.75;;;;;;;13.98;100.00;100019.41;5068859;28;20434;-73
2022/12/31 01:44:00;;;;;;;0.40;0.40;;;;;;;13.96;100.00;100010.72;5069439;28;20389;-72
2022/12/31 01:46:35;;;;;;;4.00;1.75;;;;;;;14.05;100.00;100007.31;5071337;28;20059;-72
2022/12/31 01:49:19;;;;;;;1.60;0.70;;;;;;;14.07;100.00;100002.09;5067257;28;20090;-73
2022/12/31 01:51:57;;;;;;;2.20;0.88;;;;;;;14.09;100.00;100003.22;5067466;28;20040;-73
2022/12/31 01:54:26;;;;;;;2.65;0.90;;;;;;;14.17;100.00;100001.03;5070558;28;20063;-71
2022/12/31 01:56:55;;;;;;;3.28;1.30;;;;;;;14.17;100.00;99987.88;5070344;28;20048;-72
2022/12/31 01:59:23;;;;;;;2.15;1.08;;;;;;;14.19;100.00;99993.81;5068232;28;20079;-71
2022/12/31 02:01:53;;;;;;;1.27;0.63;;;;;;;14.22;100.00;99992.13;5067413;28;20418;-71
2022/12/31 02:04:23;;;;;;;0.75;0.52;;;;;;;14.26;100.00;99990.06;5069273;28;20571;-71
2022/12/31 02:06:56;;;;;;;5.40;1.23;;;;;;;14.31;100.00;99986.75;5075277;28;20682;-72
2022/12/31 02:09:23;;;;;;;0.32;0.32;;;;;;;14.32;100.00;99991.88;5069732;28;20044;-73
2022/12/31 02:11:49;;;;;;;1.52;0.80;;;;;;;14.40;100.00;100000.78;5069447;28;20048;-72
2022/12/31 02:14:21;;;;;;;2.53;0.63;;;;;;;14.47;100.00;100015.31;5067120;28;20754;-73
2022/12/31 02:17:06;;;;;;;3.65;1.00;;;;;;;14.57;100.00;100016.22;5072164;28;20051;-74
2022/12/31 02:20:10;;;;;;;2.80;1.00;;;;;;;14.64;100.00;100011.25;5069614;28;20060;-72
2022/12/31 02:22:55;;;;;;;0.60;0.60;;;;;;;14.77;100.00;99997.34;5067523;28;20044;-73
2022/12/31 02:25:43;;;;;;;1.30;0.50;;;;;;;14.77;100.00;99998.13;5069948;28;20101;-70
2022/12/31 02:28:39;;;;;;;0.45;0.45;;;;;;;14.88;100.00;99997.78;5065769;28;20075;-71
2022/12/31 02:31:15;;;;;;;1.58;0.65;;;;;;;14.96;100.00;99983.22;5067418;28;20056;-71
2022/12/31 02:33:59;;;;;;;2.05;0.70;;;;;;;15.03;100.00;99977.44;5040606;28;20098;-74
2022/12/31 02:36:32;;;;;;;0.60;0.50;;;;;;;15.07;100.00;99999.63;5042608;28;20059;-74
2022/12/31 02:38:59;;;;;;;0.60;0.60;;;;;;;15.20;100.00;99990.06;5040489;28;20048;-72
2022/12/31 02:44:35;;;;;;;1.65;0.65;;;;;;;15.31;100.00;99987.69;5043330;28;20059;-72
2022/12/31 02:47:07;;;;;;;1.55;0.47;;;;;;;15.40;100.00;99982.25;5045846;28;20544;-72
2022/12/31 02:49:56;;;;;;;0.43;0.43;;;;;;;15.44;100.00;99982.94;5041277;28;20849;-71
2022/12/31 02:52:44;;;;;;;2.20;0.60;;;;;;;15.48;100.00;99974.44;5038326;28;20139;-73
2022/12/31 02:55:33;;;;;;;0.40;0.40;;;;;;;15.57;100.00;99972.53;5040681;28;20127;-71
2022/12/31 03:06:51;;;;;;;0.40;0.40;;;;;;;15.88;100.00;99967.09;5037645;28;20048;-74
2022/12/31 03:09:17;;;;;;;0.30;0.30;;;;;;;15.88;100.00;99986.63;5045625;28;20044;-74
2022/12/31 03:14:29;;;;;;;;;;;;;;;16.13;100.00;99994.91;5039198;28;20048;-72
2022/12/31 03:16:56;;;;;;;0.47;0.40;;;;;;;16.24;100.00;99980.59;5046048;28;20647;-72
2022/12/31 03:22:26;;;;;;;0.20;0.20;;;;;;;16.32;100.00;100032.94;5046507;28;20048;-73
2022/12/31 03:27:47;;;;;;;0.20;0.20;;;;;;;16.17;100.00;100023.50;5037912;28;20045;-72
2022/12/31 03:30:15;;;;;;;0.20;0.20;;;;;;;16.00;100.00;100027.66;5042375;28;20064;-72
2022/12/31 03:32:43;;;;;;;1.08;0.57;;;;;;;15.95;100.00;100039.41;5042072;28;20044;-73
2022/12/31 03:35:12;;;;;;;0.30;0.30;;;;;;;15.83;100.00;100037.41;5045183;28;20064;-73
2022/12/31 03:37:40;;;;;;;2.10;0.43;;;;;;;15.81;100.00;100053.03;5047079;28;20052;-74
2022/12/31 03:40:10;;;;;;;1.95;0.50;;;;;;;15.83;100.00;100050.59;5046640;28;20059;-71
2022/12/31 03:42:36;;;;;;;0.30;0.30;;;;;;;15.90;100.00;100030.81;5044763;28;20052;-71
2022/12/31 03:45:03;;;;;;;0.20;0.20;;;;;;;15.81;100.00;100042.66;5043238;28;20057;-71
2022/12/31 03:47:30;;;;;;;0.30;0.30;;;;;;;15.76;100.00;100032.06;5037278;28;20041;-72
2022/12/31 03:49:57;;;;;;;0.38;0.20;;;;;;;15.88;100.00;100036.06;5047744;28;20052;-72
2022/12/31 03:52:23;;;;;;;1.10;0.47;;;;;;;15.89;100.00;100030.03;5039354;28;20517;-72
2022/12/31 03:54:50;;;;;;;0.35;0.28;;;;;;;15.94;100.00;100021.09;5042672;28;20045;-72
2022/12/31 03:57:16;;;;;;;0.47;0.40;;;;;;;15.94;100.00;100042.63;5045664;28;20063;-72
2022/12/31 03:59:43;;;;;;;0.80;0.35;;;;;;;16.01;100.00;100036.81;5046225;28;20052;-73
2022/12/31 04:02:10;;;;;;;1.95;0.63;;;;;;;16.09;100.00;100030.53;5049179;28;20049;-72
2022/12/31 04:04:36;;;;;;;4.68;0.55;;;;;;;16.12;100.00;100046.38;5067298;28;20083;-72
2022/12/31 04:07:03;;;;;;;0.52;0.30;;;;;;;16.11;100.00;100046.84;5067721;28;20426;-71
2022/12/31 04:09:29;;;;;;;0.55;0.50;;;;;;;15.86;100.00;100078.34;5067589;28;20810;-72
2022/12/31 04:11:56;;;;;;;0.40;0.40;;;;;;;15.71;100.00;100060.53;5068563;28;20044;-72
2022/12/31 04:14:22;;;;;;;0.30;0.30;;;;;;;15.54;100.00;100075.81;5064530;28;20036;-71
2022/12/31 04:16:49;;;;;;;0.63;0.30;;;;;;;15.48;100.00;100058.88;5065773;28;20053;-73
2022/12/31 04:19:16;;;;;;;4.55;1.33;;;;;;;15.42;100.00;100051.50;5067668;28;20502;-71
2022/12/31 04:21:42;;;;;;;1.00;0.68;;;;;;;15.39;100.00;100052.41;5065630;28;20051;-70
2022/12/31 04:24:09;;;;;;;3.28;0.70;;;;;;;15.36;100.00;100054.06;5066587;28;20049;-70
2022/12/31 04:26:37;;;;;;;1.30;0.47;;;;;;;15.35;100.00;100054.47;5067736;28;20127;-73
2022/12/31 04:29:04;;;;;;;0.68;0.68;;;;;;;15.34;100.00;100042.56;5066202;28;20144;-73
2022/12/31 04:31:31;;;;;;;2.17;0.70;;;;;;;15.41;100.00;100045.16;5067580;28;20044;-73
2022/12/31 04:33:58;;;;;;;3.53;0.43;;;;;;;15.54;100.00;100022.84;5064015;28;20402;-72
2022/12/31 04:36:24;;;;;;;1.10;0.60;;;;;;;15.76;100.00;100034.09;5066819;28;20044;-73
2022/12/31 04:38:50;;;;;;;1.95;0.45;;;;;;;15.71;100.00;100048.59;5067772;28;20044;-73
2022/12/31 04:41:17;;;;;;;0.50;0.50;;;;;;;15.73;100.00;100043.34;5067566;28;20052;-70
2022/12/31 04:43:49;;;;;;;0.77;0.40;;;;;;;15.83;100.00;100045.00;5067600;28;20426;-71
2022/12/31 04:46:18;;;;;;;1.60;0.52;;;;;;;15.84;100.00;100040.97;5066347;28;20425;-73
2022/12/31 04:48:45;;;;;;;0.30;0.30;;;;;;;15.89;100.00;100071.13;5059473;28;20494;-73
2022/12/31 04:51:12;;;;;;;0.95;0.43;;;;;;;16.01;100.00;100043.19;5071242;28;20064;-72
2022/12/31 04:53:39;;;;;;;0.25;0.20;;;;;;;16.00;100.00;100052.75;5072054;28;20040;-73
2022/12/31 04:56:06;;;;;;;1.35;0.47;;;;;;;16.05;100.00;100052.22;5069714;28;20060;-73
2022/12/31 04:58:34;;;;;;;0.73;0.40;;;;;;;16.07;100.00;100086.03;5071269;28;20044;-73
2022/12/31 05:01:00;;;;;;;0.30;0.30;;;;;;;16.22;100.00;100055.63;5070828;28;20045;-73
2022/12/31 05:03:27;;;;;;;3.13;0.60;;;;;;;16.32;100.00;100066.44;5069410;28;20048;-73
2022/12/31 05:05:59;;;;;;;0.43;0.30;;;;;;;16.38;100.00;100036.72;5071054;28;20537;-71
2022/12/31 05:08:26;;;;;;;0.73;0.70;;;;;;;16.34;100.00;100043.66;5070289;28;20041;-73
2022/12/31 05:10:52;;;;;;;2.38;0.75;;;;;;;16.46;100.00;100070.75;5070641;28;20052;-73
2022/12/31 05:13:19;;;;;;;0.70;0.38;;;;;;;16.60;100.00;100017.97;5079191;28;20052;-74
2022/12/31 05:15:46;;;;;;;0.40;0.40;;;;;;;16.52;100.00;100016.69;5068035;28;20070;-73
2022/12/31 05:18:13;;;;;;;0.80;0.40;;;;;;;16.70;100.00;100032.78;5069768;28;20417;-73
2022/12/31 05:20:39;;;;;;;0.73;0.50;;;;;;;16.61;100.00;100046.69;5070193;28;20043;-73
2022/12/31 05:23:06;;;;;;;0.82;0.40;;;;;;;16.67;100.00;100030.91;5076406;28;20055;-72
2022/12/31 05:25:33;;;;;;;0.65;0.50;;;;;;;16.62;100.00;100049.03;5070827;28;20041;-73
2022/12/31 05:28:00;;;;;;;0.52;0.30;;;;;;;16.73;100.00;100068.19;5069974;28;20060;-74
2022/12/31 05:30:26;;;;;;;0.35;0.32;;;;;;;16.85;100.00;100028.25;5070421;28;20044;-71
2022/12/31 05:32:53;;;;;;;2.63;0.50;;;;;;;16.94;100.00;100039.47;5070512;28;20054;-73
2022/12/31 05:35:19;;;;;;;0.50;0.40;;;;;;;16.92;100.00;100030.75;5069961;28;20104;-72
2022/12/31 05:37:46;;;;;;;4.90;0.40;;;;;;;16.88;100.00;100036.47;5068221;28;20054;-72
2022/12/31 05:40:12;;;;;;;2.78;0.60;;;;;;;17.05;100.00;100073.38;5070417;28;20066;-72
2022/12/31 05:42:39;;;;;;;1.58;0.60;;;;;;;17.04;100.00;100049.47;5068651;28;20147;-74
2022/12/31 05:45:06;;;;;;;0.63;0.52;;;;;;;17.18;100.00;100044.09;5069493;28;20060;-72
2022/12/31 05:47:32;;;;;;;0.65;0.40;;;;;;;17.21;100.00;100034.81;5070079;28;20060;-73
2022/12/31 05:49:59;;;;;;;0.45;0.45;;;;;;;17.26;100.00;100041.81;5070165;28;20052;-71
2022/12/31 05:52:25;;;;;;;1.27;0.57;;;;;;;17.23;100.00;100053.91;5072622;28;20052;-72
2022/12/31 05:54:52;;;;;;;3.60;0.70;;;;;;;17.34;100.00;100045.88;5075196;28;20517;-72
2022/12/31 05:57:18;;;;;;;1.67;0.52;;;;;;;17.34;100.00;100054.28;5066369;28;20472;-73
2022/12/31 05:59:45;;;;;;;2.58;0.93;;;;;;;17.34;100.00;100063.44;5068255;28;20051;-73
2022/12/31 06:02:11;;;;;;;1.95;0.52;;;;;;;17.43;100.00;100054.34;5069241;28;20642;-73
2022/12/31 06:04:38;;;;;;;4.43;0.95;;;;;;;17.38;100.00;100075.28;5070522;28;20044;-71
2022/12/31 06:07:04;;;;;;;0.93;0.40;;;;;;;17.44;100.00;100076.28;5068957;28;20142;-73
2022/12/31 06:09:31;;;;;;;2.20;0.50;;;;;;;17.44;100.00;100058.69;5061012;28;20055;-71
2022/12/31 06:11:57;;;;;;;2.20;0.60;;;;;;;17.32;100.00;100087.53;5069512;28;20059;-72
2022/12/31 06:14:24;;;;;;;2.22;0.40;;;;;;;17.49;100.00;100100.84;5065543;28;20525;-71
2022/12/31 06:16:50;;;;;;;2.17;0.60;;;;;;;17.51;100.00;100109.56;5068447;28;20045;-72
2022/12/31 06:19:17;;;;;;;0.73;0.40;;;;;;;17.59;100.00;100105.22;5069768;28;20049;-73
2022/12/31 06:21:43;;;;;;;2.25;0.50;;;;;;;17.47;100.00;100100.53;5069064;28;20082;-73
2022/12/31 06:24:10;;;;;;;3.13;0.57;;;;;;;17.61;100.00;100077.59;5069082;28;20067;-71
2022/12/31 06:26:36;;;;;;;3.92;0.90;;;;;;;17.56;100.00;100116.56;5067111;28;20055;-73
2022/12/31 06:29:03;;;;;;;1.38;0.52;;;;;;;17.63;100.00;100116.28;5069035;28;20063;-73
2022/12/31 06:31:29;;;;;;;1.75;0.52;;;;;;;17.64;100.00;100124.22;5069348;28;20056;-70
2022/12/31 06:33:56;;;;;;;2.90;0.90;;;;;;;17.68;100.00;100144.44;5068286;28;20473;-73
2022/12/31 06:36:22;;;;;;;2.13;0.57;;;;;;;17.68;100.00;100146.47;5067356;28;20056;-73
2022/12/31 06:38:49;;;;;;;4.03;0.90;;;;;;;17.69;100.00;100134.06;5068627;28;20049;-74
2022/12/31 06:41:17;;;;;;;1.70;0.57;;;;;;;17.72;100.00;100142.28;5068883;28;20433;-72
2022/12/31 06:43:44;;;;;;;3.88;0.93;;;;;;;17.65;100.00;100136.22;5066531;28;20052;-73
2022/12/31 06:46:14;;;;;;;4.07;1.17;;;;;;;17.65;100.00;100144.59;5065226;28;20055;-71
2022/12/31 06:48:43;;;;;;;1.38;0.55;;;;;;;17.69;100.00;100182.38;5068740;28;20040;-71
2022/12/31 06:51:14;;;;;;;5.18;1.15;;;;;;;17.78;100.00;100125.69;5068465;28;20062;-71
2022/12/31 06:53:44;;;;;;;3.05;0.60;;;;;;;17.78;100.00;100139.66;5067984;28;20048;-71
2022/12/31 06:56:24;;;;;;;2.58;0.57;;;;;;;17.66;100.00;100154.53;5068666;28;20053;-73
2022/12/31 06:58:59;;;;;;;2.95;0.85;;;;;;;17.77;100.00;100138.13;5067303;28;20123;-73
2022/12/31 07:01:47;;;;;;;1.60;0.77;;;;;;;17.79;100.00;100160.84;5065176;28;20044;-73
2022/12/31 07:04:37;;;;;;;2.92;1.35;;;;;;;17.68;100.00;100152.06;5076101;28;20440;-73
2022/12/31 07:07:25;;;;;;;2.40;0.90;;;;;;;17.77;100.00;100143.72;5064914;28;20143;-72
2022/12/31 07:10:19;;;;;;;3.72;1.40;;;;;;;17.77;100.00;100160.50;5062769;28;20106;-74
2022/12/31 07:12:57;;;;;;;6.30;1.10;;;;;;;17.75;100.00;100141.38;5067852;28;20036;-73
2022/12/31 07:15:39;;;;;;;4.75;1.17;;;;;;;17.72;100.00;100149.91;5067099;28;20502;-73
2022/12/31 07:18:25;;;;;;;2.85;1.00;;;;;;;17.72;100.00;100142.28;5063858;28;20094;-74
2022/12/31 07:20:52;;;;;;;2.80;0.55;;;;;;;17.84;100.00;100154.63;5074784;28;20671;-71
2022/12/31 07:23:19;;;;;;;4.95;1.10;;;;;;;17.75;100.00;100179.75;5068825;28;20502;-74
2022/12/31 07:26:14;;;;;;;4.60;1.08;;;;;;;17.78;100.00;100195.63;5060648;28;20048;-73
2022/12/31 07:29:07;;;;;;;3.95;0.60;;;;;;;17.95;100.00;100180.16;5060941;28;20057;-73
2022/12/31 07:32:05;;;;;;;1.67;0.88;;;;;;;17.79;100.00;100183.22;5058424;28;20055;-73
2022/12/31 07:35:03;;;;;;;5.13;1.25;;;;;;;17.75;100.00;100182.56;5076280;28;20106;-72
2022/12/31 07:38:14;;;;;;;1.80;0.65;;;;;;;17.84;100.00;100179.81;5064844;28;21559;-74
2022/12/31 07:40:46;;;;;;;0.50;0.50;;;;;;;17.88;100.00;100189.63;5064760;28;20048;-72
2022/12/31 07:43:34;;;;;;;2.50;0.90;;;;;;;17.84;100.00;100179.81;5060841;28;20616;-73
2022/12/31 07:46:21;;;;;;;4.07;0.85;;;;;;;17.79;100.00;100209.16;5068135;28;20099;-71
2022/12/31 07:48:49;;;;;;;0.30;0.30;;;;;;;17.85;100.00;100175.75;5064470;28;20113;-72
2022/12/31 07:51:16;;;;;;;1.17;0.60;;;;;;;17.74;100.00;100195.78;5069255;28;20093;-72
2022/12/31 07:53:42;;;;;;;3.33;0.70;;;;;;;17.74;100.00;100222.97;5066461;28;20141;-73
2022/12/31 07:56:09;;;;;;;5.25;1.10;;;;;;;17.81;100.00;100191.91;5067235;28;20059;-73
2022/12/31 07:58:38;;;;;;;2.05;0.77;;;;;;;17.87;100.00;100190.09;5070159;28;20041;-71
2022/12/31 08:01:11;;;;;;;2.85;0.95;;;;;;;17.79;100.00;100206.38;5066822;28;20060;-71
2022/12/31 08:03:58;;;;;;;6.30;1.02;;;;;;;17.79;100.00;100183.22;5067781;28;20051;-74
2022/12/31 08:06:41;;;;;;;1.75;0.85;;;;;;;17.74;100.00;100187.38;5066974;28;20059;-73
2022/12/31 08:09:33;;;;;;;3.70;1.00;;;;;;;17.75;100.00;100199.34;5062881;28;20682;-72
2022/12/31 08:12:01;;;;;;;6.57;1.50;;;;;;;17.76;100.00;100207.28;5067701;28;20059;-73
2022/12/31 08:14:28;;;;;;;2.00;0.60;;;;;;;17.83;100.00;100186.66;5066496;28;20064;-72
2022/12/31 08:16:56;;;;;;;1.63;0.30;;;;;;;17.87;100.00;100218.06;5067845;28;20048;-73
2022/12/31 08:19:28;;;;;;;3.08;0.80;;;;;;;17.86;100.00;100203.28;5067754;28;20048;-72
2022/12/31 08:22:16;;;;;;;0.93;0.82;;;;;;;17.89;100.00;100215.63;5065303;28;20095;-72
2022/12/31 08:24:49;;;;;;;1.98;1.10;;;;;;;17.84;100.00;100211.38;5063703;28;20047;-72
2022/12/31 08:27:28;;;;;;;7.85;0.95;;;;;;;17.89;100.00;100221.97;5064820;28;20467;-71
2022/12/31 08:30:04;;;;;;;1.42;0.70;;;;;;;17.93;100.00;100224.63;5074725;28;20050;-71
2022/12/31 08:32:45;;;;;;;2.47;1.10;;;;;;;17.95;100.00;100211.75;5063744;28;20045;-74
2022/12/31 08:35:21;;;;;;;2.05;0.90;;;;;;;18.00;100.00;100230.72;5069711;28;20068;-73
2022/12/31 08:38:21;;;;;;;2.92;1.15;;;;;;;17.99;100.00;100242.41;5065903;28;20044;-73
2022/12/31 08:41:07;;;;;;;6.43;1.20;;;;;;;18.09;100.00;100249.59;5064896;28;20036;-73
2022/12/31 08:43:42;;;;;;;1.70;1.17;;;;;;;18.14;100.00;100209.81;5060758;28;20058;-72
2022/12/31 08:46:39;;;;;;;6.80;1.30;;;;;;;18.14;100.00;100232.19;5067390;28;20049;-71
2022/12/31 08:49:08;;;;;;;7.18;1.08;;;;;;;18.03;100.00;100221.41;5066511;28;20044;-72
2022/12/31 08:51:35;;;;;;;1.23;0.73;;;;;;;18.19;100.00;100223.19;5067080;28;20135;-74
2022/12/31 08:54:02;;;;;;;6.60;0.80;;;;;;;18.17;100.00;100239.69;5066914;28;20110;-74
2022/12/31 08:56:42;;;;;;;1.77;0.77;;;;;;;18.11;100.00;100221.13;5067412;28;20044;-71
2022/12/31 08:59:43;;;;;;;2.85;1.15;;;;;;;18.11;100.00;100233.13;5067138;28;20109;-72
2022/12/31 09:02:18;;;;;;;5.22;1.30;;;;;;;18.15;100.00;100233.00;5065193;28;20076;-73
2022/12/31 09:04:53;;;;;;;4.95;1.00;;;;;;;18.15;100.00;100239.34;5063293;28;20048;-72
2022/12/31 09:07:30;;;;;;;5.95;0.77;;;;;;;18.20;100.00;100235.97;5081881;28;20056;-71
2022/12/31 09:10:19;;;;;;;2.03;0.90;;;;;;;18.15;100.00;100233.75;5067284;28;20048;-75
2022/12/31 09:13:07;;;;;;;1.92;0.75;;;;;;;18.13;100.00;100225.06;5072164;28;20057;-72
2022/12/31 09:15:42;;;;;;;4.00;1.33;;;;;;;18.13;100.00;100255.06;5065916;28;21497;-73
2022/12/31 09:18:10;;;;;;;;;;;;;;;18.13;100.00;100269.84;5070504;28;20055;-71
2022/12/31 09:20:38;;;;;;;3.90;1.27;;;;;;;18.22;100.00;100263.50;5066223;28;19930;-73
2022/12/31 09:23:10;;;;;;;2.28;0.77;;;;;;;18.25;100.00;100288.56;5068600;28;20437;-73
2022/12/31 09:25:57;;;;;;;5.35;1.45;;;;;;;18.20;100.00;100303.16;5068412;28;20776;-75
2022/12/31 09:28:42;;;;;;;6.55;1.23;;;;;;;18.11;100.00;100325.50;5066328;28;20059;-74
2022/12/31 09:31:39;;;;;;;7.32;1.20;;;;;;;18.18;100.00;100319.63;5065274;28;20048;-74
2022/12/31 09:34:32;;;;;;;2.78;0.98;;;;;;;18.16;100.00;100319.34;5069402;28;20486;-74
2022/12/31 09:37:04;;;;;;;0.63;0.60;;;;;;;18.25;100.00;100333.38;5070724;28;20044;-74
2022/12/31 09:39:44;;;;;;;2.75;0.63;;;;;;;18.24;100.00;100334.63;5063066;28;20048;-75
2022/12/31 09:42:41;;;;;;;2.50;0.47;;;;;;;18.34;100.00;100343.84;5064930;28;20045;-73
2022/12/31 09:45:32;;;;;;;2.00;1.05;;;;;;;18.26;100.00;100343.31;5072427;28;20056;-74
2022/12/31 09:48:26;;;;;;;3.38;1.10;;;;;;;18.25;100.00;100357.81;5067962;28;20072;-72
2022/12/31 09:51:25;;;;;;;3.72;1.10;;;;;;;18.18;100.00;100409.25;5065696;28;20048;-74
2022/12/31 09:54:13;;;;;;;6.68;1.67;;;;;;;18.21;100.00;100357.13;5051404;28;20847;-73
2022/12/31 09:57:08;;;;;;;6.68;1.45;;;;;;;18.15;100.00;100376.53;5062318;28;20040;-73
2022/12/31 10:00:11;;;;;;;4.38;1.05;;;;;;;18.25;100.00;100375.38;5068731;28;20036;-73
2022/12/31 10:02:40;;;;;;;3.75;1.10;;;;;;;17.69;100.00;100374.66;5061500;28;20463;-74
2022/12/31 10:05:25;;;;;;;1.25;0.82;;;;;;;17.83;100.00;100385.34;5072617;28;20070;-73
2022/12/31 10:07:54;;;;;;;2.42;0.73;;;;;;;17.79;100.00;100391.06;5063804;28;20048;-74
2022/12/31 10:10:39;;;;;;;2.55;0.77;;;;;;;17.91;100.00;100383.84;5069695;28;20604;-73
2022/12/31 10:13:39;;;;;;;1.50;0.70;;;;;;;17.96;100.00;100366.47;5071452;28;20048;-72
2022/12/31 10:16:20;;;;;;;4.70;1.02;;;;;;;18.05;100.00;100363.72;5067650;28;20302;-73
2022/12/31 10:19:02;;;;;;;1.85;0.85;;;;;;;18.06;100.00;100375.72;5072682;28;20071;-74
2022/12/31 10:21:56;;;;;;;5.60;1.88;;;;;;;18.09;100.00;100395.16;5065006;28;20048;-74
2022/12/31 10:24:50;;;;;;;7.03;1.33;;;;;;;18.10;100.00;100391.16;5067847;28;20056;-72
2022/12/31 10:27:16;;;;;;;3.97;1.00;;;;;;;18.19;100.00;100382.03;5069429;28;20139;-73
2022/12/31 10:29:47;;;;;;;3.42;0.80;;;;;;;18.23;100.00;100389.06;5068699;28;20040;-73
2022/12/31 10:32:41;;;;;;;5.53;1.50;;;;;;;18.14;100.00;100380.59;5064529;28;20136;-72
2022/12/31 10:35:22;;;;;;;3.60;1.30;;;;;;;18.16;100.00;100392.13;5068045;28;20155;-73
2022/12/31 10:37:58;;;;;;;3.65;0.70;;;;;;;18.24;100.00;100396.22;5070130;28;20049;-73
2022/12/31 10:40:55;;;;;;;4.35;1.30;;;;;;;18.27;100.00;100409.31;5078186;28;20130;-72
2022/12/31 10:43:46;;;;;;;2.75;1.10;;;;;;;18.34;100.00;100383.84;5066423;28;20052;-74
2022/12/31 10:46:43;;;;;;;5.60;1.63;;;;;;;18.32;100.00;100439.53;5067497;28;20585;-72
2022/12/31 10:49:27;;;;;;;5.72;1.38;;;;;;;18.46;100.00;100382.97;5064383;28;20051;-73
2022/12/31 10:52:12;;;;;;;3.80;1.45;;;;;;;18.32;100.00;100391.13;5073989;28;20875;-73
2022/12/31 10:55:08;;;;;;;3.50;1.27;;;;;;;18.38;100.00;100409.72;5068674;28;20059;-70
2022/12/31 10:57:44;;;;;;;1.75;0.82;;;;;;;18.53;100.00;100387.56;5061319;28;20044;-72
2022/12/31 11:00:21;;;;;;;5.70;1.52;;;;;;;18.38;100.00;100418.13;5065411;28;20044;-71
2022/12/31 11:03:09;;;;;;;6.43;1.33;;;;;;;18.40;100.00;100424.06;5059379;28;20084;-73
2022/12/31 11:05:54;;;;;;;6.45;1.20;;;;;;;18.58;100.00;100384.94;5052903;28;20064;-73
2022/12/31 11:08:32;;;;;;;2.92;1.20;;;;;;;18.65;100.00;100373.44;5068078;28;20056;-70
2022/12/31 11:11:30;;;;;;;3.63;1.60;;;;;;;18.57;100.00;100363.75;5065399;28;20052;-72
2022/12/31 11:14:15;;;;;;;2.53;1.10;;;;;;;18.61;100.00;100369.22;5060563;28;20123;-72
2022/12/31 11:16:55;;;;;;;4.57;0.80;;;;;;;18.73;100.00;100349.50;5059559;28;20078;-73
2022/12/31 11:19:46;;;;;;;7.15;1.60;;;;;;;18.80;100.00;100360.41;5067484;28;20044;-72
2022/12/31 11:22:50;;;;;;;2.67;1.33;;;;;;;18.76;100.00;100362.59;5065308;28;20127;-74
2022/12/31 11:25:29;;;;;;;5.10;1.48;;;;;;;18.73;100.00;100355.09;5063387;28;20052;-72
2022/12/31 11:28:18;;;;;;;1.20;0.80;;;;;;;18.78;100.00;100353.72;5072399;28;20058;-74
2022/12/31 11:31:00;;;;;;;6.68;1.35;;;;;;;18.69;100.00;100371.28;5062954;28;20518;-73
2022/12/31 11:33:57;;;;;;;3.97;1.08;;;;;;;18.74;100.00;100384.69;5060627;28;20105;-73
2022/12/31 11:36:39;;;;;;;5.10;1.65;;;;;;;18.73;100.00;100354.34;5069234;28;20055;-73
2022/12/31 11:39:30;;;;;;;3.45;1.33;;;;;;;18.81;100.00;100367.59;5062049;28;20131;-74
2022/12/31 11:42:10;;;;;;;5.32;1.00;;;;;;;18.72;100.00;100408.81;5063205;28;20119;-72
2022/12/31 11:45:16;;;;;;;3.17;0.60;;;;;;;18.73;100.00;100405.53;5058268;28;20052;-72
2022/12/31 11:48:18;;;;;;;1.38;0.85;;;;;;;18.77;100.00;100397.78;5065329;28;20040;-74
2022/12/31 11:51:33;;;;;;;4.30;1.20;;;;;;;18.72;100.00;100378.75;5061669;28;20124;-75
2022/12/31 11:54:24;;;;;;;4.80;1.38;;;;;;;18.74;100.00;100386.72;5053925;28;20053;-73
2022/12/31 11:57:22;;;;;;;3.55;1.02;;;;;;;18.75;100.00;100397.47;5061490;28;20055;-73
2022/12/31 11:59:56;;;;;;;3.63;0.85;;;;;;;18.52;100.00;100436.44;5060002;28;20036;-74
2022/12/31 12:02:34;;;;;;;1.55;0.85;;;;;;;18.73;100.00;100391.53;5071859;28;20517;-73
2022/12/31 12:05:04;;;;;;;4.88;1.08;;;;;;;18.56;100.00;100392.25;5061880;28;20059;-73
2022/12/31 12:07:36;;;;;;;8.25;1.58;;;;;;;18.62;100.00;100398.78;5065837;28;20115;-71
2022/12/31 12:10:21;;;;;;;4.03;1.08;;;;;;;18.66;100.00;100405.81;5036894;28;20052;-71
2022/12/31 12:12:47;;;;;;;3.28;1.05;;;;;;;18.69;100.00;100395.75;5034536;28;20557;-73
2022/12/31 12:15:28;;;;;;;5.00;1.95;;;;;;;18.58;100.00;100407.34;5038134;28;20069;-73
2022/12/31 12:18:05;;;;;;;4.72;1.58;;;;;;;18.62;100.00;100419.19;5042487;28;20049;-74